createdAt,value
2022-08-07T00:01:44.256Z,41.91
2022-08-07T00:04:18.497Z,41.85
2022-08-07T00:06:52.543Z,41.59
2022-08-07T00:09:22.789Z,41.96
2022-08-07T00:11:56.179Z,42.04
2022-08-07T00:14:30.312Z,42.84
2022-08-07T00:16:58.859Z,42.26
2022-08-07T00:20:00.481Z,41.77
2022-08-07T00:22:24.441Z,41.98
2022-08-07T00:25:16.617Z,41.74
2022-08-07T00:27:52.927Z,41.36
2022-08-07T00:30:27.075Z,42.12
2022-08-07T00:32:56.317Z,42.61
2022-08-07T00:35:24.395Z,41.83
2022-08-07T00:37:52.350Z,42.79
2022-08-07T00:40:38.987Z,42.35
2022-08-07T00:43:59.235Z,42.65
2022-08-07T00:46:04.821Z,42.82
2022-08-07T00:48:35.656Z,42.59
2022-08-07T00:51:13.028Z,42.50
2022-08-07T00:53:50.096Z,42.67
2022-08-07T00:56:20.004Z,42.53
2022-08-07T00:58:49.666Z,42.90
2022-08-07T01:01:18.856Z,43.26
2022-08-07T01:03:55.928Z,43.97
2022-08-07T01:06:31.743Z,43.81
2022-08-07T01:09:02.998Z,44.21
2022-08-07T01:12:09.677Z,44.42
2022-08-07T01:14:28.397Z,43.70
2022-08-07T01:16:57.092Z,43.15
2022-08-07T01:19:25.307Z,43.69
2022-08-07T01:22:00.416Z,43.78
2022-08-07T01:24:31.181Z,44.43
2022-08-07T01:27:05.265Z,44.77
2022-08-07T01:29:47.893Z,45.49
2022-08-07T01:32:18.397Z,46.25
2022-08-07T01:34:49.335Z,46.67
2022-08-07T01:37:20.477Z,46.88
2022-08-07T01:39:51.147Z,46.82
2022-08-07T01:42:38.114Z,46.65
2022-08-07T01:45:16.077Z,46.86
2022-08-07T01:48:29.400Z,47.11
2022-08-07T01:50:34.825Z,47.21
2022-08-07T01:53:08.507Z,47.69
2022-08-07T01:55:38.211Z,48.64
2022-08-07T01:58:29.499Z,48.47
2022-08-07T02:01:10.307Z,47.63
2022-08-07T02:03:50.955Z,48.16
2022-08-07T02:06:32.151Z,47.79
2022-08-07T02:09:04.310Z,48.26
2022-08-07T02:12:02.994Z,48.75
2022-08-07T02:14:36.130Z,49.11
2022-08-07T02:17:04.601Z,49.38
2022-08-07T02:20:07.016Z,49.77
2022-08-07T02:22:21.941Z,49.60
2022-08-07T02:24:56.318Z,50.19
2022-08-07T02:27:34.588Z,49.93
2022-08-07T02:30:16.842Z,50.11
2022-08-07T02:33:08.885Z,50.40
2022-08-07T02:36:29.913Z,51.15
2022-08-07T02:38:31.695Z,51.04
2022-08-07T02:41:04.041Z,51.46
2022-08-07T02:43:32.277Z,50.93
2022-08-07T02:46:02.525Z,51.64
2022-08-07T02:48:30.827Z,51.59
2022-08-07T02:50:58.759Z,51.33
2022-08-07T02:53:31.191Z,51.16
2022-08-07T02:56:17.359Z,50.73
2022-08-07T02:58:46.987Z,50.90
2022-08-07T03:01:19.142Z,50.14
2022-08-07T03:04:07.080Z,50.60
2022-08-07T03:06:46.005Z,50.67
2022-08-07T03:09:42.434Z,50.92
2022-08-07T03:12:08.109Z,51.34
2022-08-07T03:14:52.119Z,51.53
2022-08-07T03:17:22.042Z,51.84
2022-08-07T03:19:55.136Z,51.86
2022-08-07T03:22:24.078Z,51.60
2022-08-07T03:25:03.183Z,51.59
2022-08-07T03:28:08.848Z,52.07
2022-08-07T03:30:20.610Z,51.71
2022-08-07T03:32:58.634Z,52.11
2022-08-07T03:35:44.008Z,52.36
2022-08-07T03:38:21.450Z,53.09
2022-08-07T03:40:57.875Z,52.91
2022-08-07T03:43:32.307Z,52.46
2022-08-07T03:46:04.510Z,52.09
2022-08-07T03:49:02.462Z,51.83
2022-08-07T03:51:47.819Z,52.48
2022-08-07T03:54:35.221Z,52.17
2022-08-07T03:57:08.626Z,52.87
2022-08-07T03:59:46.799Z,52.80
2022-08-07T04:02:28.091Z,52.89
2022-08-07T04:04:56.262Z,52.65
2022-08-07T04:07:25.679Z,52.27
2022-08-07T04:10:04.193Z,51.47
2022-08-07T04:12:35.240Z,51.70
2022-08-07T04:15:08.899Z,51.60
2022-08-07T04:18:31.917Z,51.19
2022-08-07T04:20:28.775Z,51.07
2022-08-07T04:23:10.349Z,50.87
2022-08-07T04:25:47.338Z,51.18
2022-08-07T04:28:17.170Z,49.06
2022-08-07T04:30:55.294Z,47.25
2022-08-07T04:33:25.541Z,45.92
2022-08-07T04:35:54.148Z,46.90
2022-08-07T04:38:23.258Z,46.44
2022-08-07T04:40:51.625Z,47.63
2022-08-07T04:43:21.989Z,49.06
2022-08-07T04:46:12.478Z,48.91
2022-08-07T04:48:55.958Z,49.55
2022-08-07T04:51:27.676Z,49.54
2022-08-07T04:54:05.348Z,50.21
2022-08-07T04:58:11.155Z,50.23
2022-08-07T05:00:09.695Z,50.75
2022-08-07T05:02:20.639Z,50.35
2022-08-07T05:04:50.707Z,50.38
2022-08-07T05:07:21.131Z,50.54
2022-08-07T05:09:58.330Z,50.58
2022-08-07T05:12:30.342Z,50.49
2022-08-07T05:15:04.881Z,50.35
2022-08-07T05:17:53.024Z,50.77
2022-08-07T05:20:35.682Z,50.80
2022-08-07T05:23:15.647Z,50.97
2022-08-07T05:26:11.897Z,51.20
2022-08-07T05:28:33.288Z,51.52
2022-08-07T05:31:01.246Z,51.05
2022-08-07T05:33:35.539Z,50.78
2022-08-07T05:36:04.746Z,50.59
2022-08-07T05:39:00.907Z,51.17
2022-08-07T05:42:00.567Z,50.97
2022-08-07T05:44:29.306Z,51.19
2022-08-07T05:46:57.451Z,50.81
2022-08-07T05:49:40.408Z,51.25
2022-08-07T05:52:11.760Z,51.68
2022-08-07T05:54:44.546Z,52.82
2022-08-07T05:57:23.646Z,52.49
2022-08-07T05:59:57.984Z,52.09
2022-08-07T06:02:29.037Z,52.60
2022-08-07T06:05:01.849Z,53.18
2022-08-07T06:08:13.049Z,52.67
2022-08-07T06:10:20.431Z,52.91
2022-08-07T06:12:48.302Z,52.63
2022-08-07T06:15:16.402Z,53.21
2022-08-07T06:17:53.354Z,53.54
2022-08-07T06:20:25.375Z,54.03
2022-08-07T06:23:24.846Z,54.65
2022-08-07T06:25:54.431Z,54.84
2022-08-07T06:28:28.181Z,56.30
2022-08-07T06:30:56.247Z,57.84
2022-08-07T06:33:25.824Z,58.03
2022-08-07T06:36:13.415Z,58.07
2022-08-07T06:38:59.198Z,57.43
2022-08-07T06:42:02.655Z,58.99
2022-08-07T06:44:22.725Z,58.36
2022-08-07T06:47:10.126Z,57.19
2022-08-07T06:49:51.752Z,58.51
2022-08-07T06:52:31.942Z,60.01
2022-08-07T06:55:32.878Z,60.24
2022-08-07T06:57:54.939Z,59.17
2022-08-07T07:00:25.285Z,58.16
2022-08-07T07:02:57.764Z,58.64
2022-08-07T07:06:05.708Z,57.88
2022-08-07T07:08:26.499Z,57.38
2022-08-07T07:11:00.947Z,57.12
2022-08-07T07:13:55.536Z,57.23
2022-08-07T07:16:20.815Z,56.72
2022-08-07T07:18:50.039Z,56.33
2022-08-07T07:21:20.014Z,56.69
2022-08-07T07:24:09.519Z,56.74
2022-08-07T07:26:37.952Z,56.73
2022-08-07T07:29:56.317Z,56.51
2022-08-07T07:31:59.974Z,55.77
2022-08-07T07:34:30.843Z,56.47
2022-08-07T07:37:14.472Z,58.02
2022-08-07T07:39:55.669Z,57.65
2022-08-07T07:42:25.918Z,57.63
2022-08-07T07:45:01.924Z,56.80
2022-08-07T07:47:30.101Z,56.52
2022-08-07T07:50:35.392Z,56.90
2022-08-07T07:53:01.767Z,56.33
2022-08-07T07:55:37.576Z,55.87
2022-08-07T07:58:13.342Z,56.20
2022-08-07T08:00:45.718Z,56.00
2022-08-07T08:04:05.963Z,55.12
2022-08-07T08:06:07.800Z,55.33
2022-08-07T08:08:41.779Z,55.55
2022-08-07T08:11:16.468Z,55.38
2022-08-07T08:13:59.009Z,56.34
2022-08-07T08:16:29.610Z,54.98
2022-08-07T08:20:17.774Z,54.70
2022-08-07T08:22:23.322Z,54.44
2022-08-07T08:25:25.046Z,53.44
2022-08-07T08:28:04.068Z,53.53
2022-08-07T08:30:34.877Z,52.91
2022-08-07T08:33:05.516Z,51.84
2022-08-07T08:35:47.168Z,51.50
2022-08-07T08:38:18.543Z,51.19
2022-08-07T08:40:52.975Z,49.93
2022-08-07T08:43:31.984Z,48.09
2022-08-07T08:46:10.816Z,47.22
2022-08-07T08:48:42.668Z,46.79
2022-08-07T08:51:14.769Z,47.87
2022-08-07T08:53:58.099Z,45.57
2022-08-07T08:56:29.635Z,46.31
2022-08-07T08:59:06.547Z,46.76
2022-08-07T09:01:49.193Z,46.53
2022-08-07T09:04:25.774Z,46.31
2022-08-07T09:06:57.373Z,46.42
2022-08-07T09:09:44.041Z,46.86
2022-08-07T09:12:30.133Z,47.55
2022-08-07T09:16:23.995Z,47.26
2022-08-07T09:17:59.488Z,46.79
2022-08-07T09:20:35.391Z,46.35
2022-08-07T09:24:35.041Z,44.15
2022-08-07T09:25:56.465Z,42.83
2022-08-07T09:30:05.007Z,43.85
2022-08-07T09:31:17.244Z,43.08
2022-08-07T09:33:57.724Z,43.46
2022-08-07T09:36:26.900Z,43.44
2022-08-07T09:39:00.199Z,43.24
2022-08-07T09:42:02.921Z,43.37
2022-08-07T09:47:24.873Z,42.78
2022-08-07T09:48:00.352Z,42.80
2022-08-07T09:50:32.477Z,41.78
2022-08-07T09:53:02.061Z,42.35
2022-08-07T09:56:02.831Z,42.11
2022-08-07T09:58:32.587Z,42.26
2022-08-07T10:01:08.510Z,42.21
2022-08-07T10:04:05.294Z,41.99
2022-08-07T10:06:55.777Z,41.70
2022-08-07T10:10:00.292Z,40.00
2022-08-07T10:12:45.898Z,40.64
2022-08-07T10:15:27.398Z,40.86
2022-08-07T10:18:09.716Z,40.94
2022-08-07T10:20:51.610Z,40.58
2022-08-07T10:24:05.993Z,40.65
2022-08-07T10:26:28.243Z,40.70
2022-08-07T10:29:02.619Z,40.57
2022-08-07T10:31:39.615Z,40.24
2022-08-07T10:34:15.764Z,40.07
2022-08-07T10:36:53.885Z,40.13
2022-08-07T10:39:42.162Z,40.39
2022-08-07T10:42:30.955Z,38.41
2022-08-07T10:45:03.192Z,38.09
2022-08-07T10:47:53.749Z,38.38
2022-08-07T10:50:25.913Z,38.27
2022-08-07T10:52:57.013Z,37.85
2022-08-07T10:55:38.313Z,36.86
2022-08-07T10:58:17.754Z,36.64
2022-08-07T11:00:56.044Z,37.27
2022-08-07T11:03:28.125Z,37.29
2022-08-07T11:06:08.386Z,37.22
2022-08-07T11:08:44.371Z,36.64
2022-08-07T11:11:20.115Z,36.46
2022-08-07T11:14:43.719Z,36.05
2022-08-07T11:16:37.726Z,36.98
2022-08-07T11:19:06.817Z,36.31
2022-08-07T11:21:41.014Z,35.62
2022-08-07T11:24:13.720Z,35.54
2022-08-07T11:26:50.051Z,35.56
2022-08-07T11:29:40.860Z,35.69
2022-08-07T11:32:09.764Z,35.20
2022-08-07T11:34:42.354Z,34.52
2022-08-07T11:37:13.044Z,33.57
2022-08-07T11:39:59.024Z,34.57
2022-08-07T11:42:36.719Z,34.37
2022-08-07T11:45:12.475Z,33.49
2022-08-07T11:47:56.517Z,32.88
2022-08-07T11:50:35.245Z,33.44
2022-08-07T11:53:08.579Z,33.68
2022-08-07T11:56:25.508Z,33.20
2022-08-07T11:58:33.564Z,33.51
2022-08-07T12:01:05.132Z,33.60
2022-08-07T12:03:49.243Z,33.61
2022-08-07T12:06:37.972Z,33.88
2022-08-07T12:09:09.089Z,33.92
2022-08-07T12:12:09.383Z,34.00
2022-08-07T12:14:40.645Z,33.66
2022-08-07T12:17:09.766Z,32.96
2022-08-07T12:20:03.244Z,32.41
2022-08-07T12:22:55.951Z,32.83
2022-08-07T12:26:03.337Z,32.69
2022-08-07T12:28:37.665Z,32.67
2022-08-07T12:31:17.193Z,33.67
2022-08-07T12:34:01.305Z,33.75
2022-08-07T12:36:35.784Z,33.40
2022-08-07T12:39:41.967Z,32.49
2022-08-07T12:41:52.501Z,33.10
2022-08-07T12:44:23.360Z,32.58
2022-08-07T12:46:56.555Z,32.82
2022-08-07T12:49:44.720Z,32.43
2022-08-07T12:52:18.026Z,32.42
2022-08-07T12:54:54.607Z,33.00
2022-08-07T12:57:39.217Z,33.18
2022-08-07T13:00:32.494Z,32.91
2022-08-07T13:03:17.046Z,32.16
2022-08-07T13:06:04.082Z,33.29
2022-08-07T13:08:39.587Z,33.58
2022-08-07T13:11:10.422Z,32.87
2022-08-07T13:13:52.323Z,32.43
2022-08-07T13:16:26.155Z,32.74
2022-08-07T13:18:59.114Z,33.29
2022-08-07T13:21:37.202Z,34.06
2022-08-07T13:24:20.358Z,33.70
2022-08-07T13:26:55.778Z,32.41
2022-08-07T13:29:26.303Z,32.33
2022-08-07T13:32:23.745Z,32.17
2022-08-07T13:34:54.492Z,31.06
2022-08-07T13:37:28.399Z,31.16
2022-08-07T13:40:35.914Z,31.30
2022-08-07T13:43:05.804Z,32.42
2022-08-07T13:46:20.895Z,32.06
2022-08-07T13:48:38.699Z,33.68
2022-08-07T13:51:28.446Z,33.27
2022-08-07T13:54:00.781Z,32.28
2022-08-07T13:56:35.790Z,32.19
2022-08-07T13:59:12.778Z,31.54
2022-08-07T14:01:51.563Z,30.51
2022-08-07T14:04:35.778Z,30.97
2022-08-07T14:07:09.493Z,30.68
2022-08-07T14:10:03.015Z,32.08
2022-08-07T14:12:31.269Z,31.98
2022-08-07T14:15:12.910Z,31.48
2022-08-07T14:18:24.420Z,31.79
2022-08-07T14:20:40.658Z,31.26
2022-08-07T14:23:12.905Z,32.34
2022-08-07T14:25:48.020Z,31.67
2022-08-07T14:28:16.173Z,31.24
2022-08-07T14:30:47.291Z,31.63
2022-08-07T14:33:22.282Z,31.63
2022-08-07T14:35:55.894Z,31.88
2022-08-07T14:38:30.831Z,31.28
2022-08-07T14:43:57.811Z,31.26
2022-08-07T14:46:32.063Z,30.79
2022-08-07T14:49:55.585Z,30.20
2022-08-07T14:52:04.771Z,30.10
2022-08-07T14:54:41.720Z,30.36
2022-08-07T14:57:11.621Z,30.16
2022-08-07T15:00:05.540Z,30.35
2022-08-07T15:02:35.219Z,30.66
2022-08-07T15:05:04.963Z,30.96
2022-08-07T15:07:51.043Z,30.62
2022-08-07T15:10:26.486Z,30.90
2022-08-07T15:13:01.458Z,29.84
2022-08-07T15:15:38.422Z,29.38
2022-08-07T15:18:14.114Z,29.66
2022-08-07T15:20:58.499Z,28.69
2022-08-07T15:26:28.681Z,30.53
2022-08-07T15:28:59.475Z,31.49
2022-08-07T15:34:34.816Z,30.58
2022-08-07T15:37:06.889Z,31.38
2022-08-07T15:45:55.972Z,30.95
2022-08-07T15:48:25.769Z,30.48
2022-08-07T15:51:08.104Z,30.72
2022-08-07T15:53:52.417Z,30.76
2022-08-07T15:56:29.477Z,30.26
2022-08-07T15:59:03.069Z,30.82
2022-08-07T16:01:38.738Z,31.33
2022-08-07T16:04:14.921Z,31.15
2022-08-07T16:06:44.565Z,30.66
2022-08-07T16:09:22.347Z,31.87
2022-08-07T16:12:06.070Z,31.39
2022-08-07T16:14:53.205Z,31.34
2022-08-07T16:18:02.393Z,31.45
2022-08-07T16:20:33.121Z,31.39
2022-08-07T16:23:53.053Z,31.44
2022-08-07T16:26:14.491Z,31.13
2022-08-07T16:30:07.833Z,31.46
2022-08-07T16:31:50.821Z,31.66
2022-08-07T16:34:27.500Z,31.61
2022-08-07T16:38:06.869Z,31.53
2022-08-07T16:40:28.188Z,31.75
2022-08-07T16:43:00.900Z,31.90
2022-08-07T16:46:33.755Z,31.56
2022-08-07T16:49:04.026Z,31.71
2022-08-07T16:51:54.380Z,31.35
2022-08-07T16:54:33.186Z,31.43
2022-08-07T16:57:15.519Z,31.46
2022-08-07T16:59:47.423Z,31.70
2022-08-07T17:02:52.170Z,31.60
2022-08-07T17:06:01.755Z,31.46
2022-08-07T17:08:21.251Z,30.98
2022-08-07T17:10:55.600Z,31.77
2022-08-07T17:13:41.722Z,32.28
2022-08-07T17:16:25.084Z,32.82
2022-08-07T17:18:59.984Z,32.47
2022-08-07T17:21:50.593Z,32.42
2022-08-07T17:24:26.628Z,32.38
2022-08-07T17:26:59.323Z,32.72
2022-08-07T17:30:14.632Z,32.17
2022-08-07T17:32:30.772Z,31.90
2022-08-07T17:35:49.786Z,32.07
2022-08-07T17:38:11.315Z,32.34
2022-08-07T17:40:50.398Z,32.78
2022-08-07T17:43:19.450Z,33.07
2022-08-07T17:46:11.543Z,33.57
2022-08-07T17:48:41.369Z,33.33
2022-08-07T17:51:12.929Z,33.97
2022-08-07T17:54:00.983Z,33.77
2022-08-07T17:56:30.598Z,33.78
2022-08-07T17:59:02.998Z,33.99
2022-08-07T18:01:38.246Z,33.92
2022-08-07T18:04:16.504Z,33.68
2022-08-07T18:06:58.046Z,34.56
2022-08-07T18:09:48.333Z,34.62
2022-08-07T18:12:30.153Z,34.70
2022-08-07T18:15:00.865Z,34.84
2022-08-07T18:18:47.543Z,35.04
2022-08-07T18:21:08.367Z,34.58
2022-08-07T18:23:21.882Z,34.85
2022-08-07T18:26:03.321Z,34.80
2022-08-07T18:28:57.735Z,35.25
2022-08-07T18:31:33.779Z,34.52
2022-08-07T18:34:40.925Z,34.71
2022-08-07T18:37:09.719Z,34.53
2022-08-07T18:40:06.785Z,34.50
2022-08-07T18:42:36.609Z,34.30
2022-08-07T18:45:44.659Z,34.22
2022-08-07T18:48:02.589Z,34.37
2022-08-07T18:50:44.104Z,34.81
2022-08-07T18:53:16.381Z,34.51
2022-08-07T18:55:57.208Z,35.25
2022-08-07T18:58:34.937Z,35.60
2022-08-07T19:01:05.680Z,35.59
2022-08-07T19:03:37.626Z,35.15
2022-08-07T19:06:07.029Z,35.71
2022-08-07T19:08:39.203Z,35.70
2022-08-07T19:11:35.764Z,35.76
2022-08-07T19:14:17.124Z,35.47
2022-08-07T19:17:07.046Z,35.83
2022-08-07T19:19:42.638Z,36.22
2022-08-07T19:22:11.274Z,36.37
2022-08-07T19:24:48.066Z,36.45
2022-08-07T19:28:29.232Z,36.90
2022-08-07T19:31:00.690Z,36.57
2022-08-07T19:33:10.279Z,36.30
2022-08-07T19:35:41.249Z,36.16
2022-08-07T19:38:16.640Z,36.26
2022-08-07T19:40:49.666Z,36.60
2022-08-07T19:43:21.936Z,36.66
2022-08-07T19:46:14.623Z,36.35
2022-08-07T19:48:53.729Z,36.82
2022-08-07T19:51:50.946Z,36.95
2022-08-07T19:54:33.986Z,36.88
2022-08-07T19:58:00.564Z,36.96
2022-08-07T19:59:54.299Z,36.73
2022-08-07T20:02:29.122Z,36.55
2022-08-07T20:04:57.046Z,37.03
2022-08-07T20:07:45.820Z,36.85
2022-08-07T20:10:35.780Z,37.28
2022-08-07T20:13:06.138Z,37.38
2022-08-07T20:15:37.220Z,37.56
2022-08-07T20:18:17.998Z,37.26
2022-08-07T20:20:47.171Z,37.14
2022-08-07T20:23:32.982Z,37.54
2022-08-07T20:26:09.798Z,37.92
2022-08-07T20:28:40.023Z,37.90
2022-08-07T20:31:21.618Z,37.83
2022-08-07T20:33:57.325Z,38.39
2022-08-07T20:36:27.684Z,38.49
2022-08-07T20:39:00.877Z,38.71
2022-08-07T20:41:48.257Z,39.04
2022-08-07T20:44:15.904Z,38.81
2022-08-07T20:46:45.493Z,38.68
2022-08-07T20:50:01.125Z,38.81
2022-08-07T20:52:16.548Z,39.12
2022-08-07T20:54:45.655Z,39.21
2022-08-07T20:57:22.294Z,39.18
2022-08-07T21:00:06.404Z,39.23
2022-08-07T21:02:57.642Z,39.21
2022-08-07T21:05:51.517Z,39.28
2022-08-07T21:08:19.906Z,39.16
2022-08-07T21:11:03.993Z,39.20
2022-08-07T21:13:43.839Z,39.26
2022-08-07T21:16:20.303Z,39.07
2022-08-07T21:18:53.237Z,38.83
2022-08-07T21:21:27.070Z,39.24
2022-08-07T21:23:57.751Z,38.85
2022-08-07T21:26:30.844Z,38.95
2022-08-07T21:28:59.598Z,39.18
2022-08-07T21:32:42.523Z,39.27
2022-08-07T21:34:32.181Z,39.39
2022-08-07T21:37:04.362Z,39.75
2022-08-07T21:39:47.587Z,39.52
2022-08-07T21:46:03.416Z,39.71
2022-08-07T21:48:06.547Z,39.52
2022-08-07T21:51:04.702Z,39.40
2022-08-07T21:53:46.560Z,39.70
2022-08-07T21:56:39.852Z,39.38
2022-08-07T21:59:12.058Z,39.51
2022-08-07T22:02:04.393Z,39.14
2022-08-07T22:04:33.153Z,38.78
2022-08-07T22:07:01.837Z,39.00
2022-08-07T22:09:37.937Z,39.14
2022-08-07T22:12:26.871Z,39.12
2022-08-07T22:15:01.314Z,38.96
2022-08-07T22:17:36.100Z,39.02
2022-08-07T22:20:07.028Z,39.63
2022-08-07T22:22:39.922Z,38.85
2022-08-07T22:25:17.262Z,38.89
2022-08-07T22:28:07.735Z,39.32
2022-08-07T22:30:36.752Z,39.65
2022-08-07T22:33:05.424Z,39.30
2022-08-07T22:35:40.606Z,39.94
2022-08-07T22:38:20.395Z,39.36
2022-08-07T22:40:54.348Z,40.01
2022-08-07T22:43:31.392Z,40.03
2022-08-07T22:46:56.023Z,39.83
2022-08-07T22:49:15.951Z,39.55
2022-08-07T22:52:03.329Z,39.10
2022-08-07T22:54:48.804Z,39.26
2022-08-07T22:57:25.974Z,39.49
2022-08-07T22:59:53.952Z,39.54
2022-08-07T23:02:32.246Z,39.67
2022-08-07T23:06:09.488Z,40.54
2022-08-07T23:08:04.830Z,41.21
2022-08-07T23:10:42.166Z,41.47
2022-08-07T23:13:29.463Z,41.88
2022-08-07T23:16:46.653Z,41.70
2022-08-07T23:19:47.875Z,41.65
2022-08-07T23:22:15.999Z,41.64
2022-08-07T23:24:47.696Z,41.93
2022-08-07T23:27:33.827Z,41.99
2022-08-07T23:30:39.126Z,42.25
2022-08-07T23:34:36.923Z,42.41
2022-08-07T23:35:56.782Z,42.71
2022-08-07T23:38:42.194Z,43.21
2022-08-07T23:41:16.755Z,42.70
2022-08-07T23:44:05.732Z,43.74
2022-08-07T23:46:55.279Z,43.09
2022-08-07T23:49:49.756Z,42.95
2022-08-07T23:53:01.714Z,42.74
2022-08-07T23:55:12.377Z,43.14
2022-08-07T23:58:00.604Z,44.24
